Terminal Aerodrome Forecast
Issued by NWS

Home | Current Version | Previous Version | Text Only | Print | Product List | Glossary Off
Versions: 1 2 3 4 5 6 7 8 9 10 11 12 13 14 15 16 17 18 19

000
FTUS43 KBIS 141300 AAA
TAFMOT
TAF AMD
KMOT 141304Z 1413/1512 30010KT P6SM SCT025
     FM141700 29007KT P6SM SCT080
     FM150100 VRB04KT P6SM SKC=

USA.gov is the U.S. government's official web portal to all federal, state and local government web resources and services.